sensor_id;sensor_type;location;lat;lon;timestamp;P1;durP1;ratioP1;P2;durP2;ratioP2
71771;SDS011;59606;52.138;5.424;2023-04-28T00:00:12;5.22;;;3.03;;
71771;SDS011;59606;52.138;5.424;2023-04-28T00:02:38;7.67;;;3.40;;
71771;SDS011;59606;52.138;5.424;2023-04-28T00:05:05;7.40;;;3.08;;
71771;SDS011;59606;52.138;5.424;2023-04-28T00:07:32;6.65;;;3.10;;
71771;SDS011;59606;52.138;5.424;2023-04-28T00:09:58;7.35;;;3.30;;
71771;SDS011;59606;52.138;5.424;2023-04-28T00:12:26;6.57;;;2.92;;
71771;SDS011;59606;52.138;5.424;2023-04-28T00:14:53;8.43;;;3.70;;
71771;SDS011;59606;52.138;5.424;2023-04-28T00:17:19;6.80;;;2.95;;
71771;SDS011;59606;52.138;5.424;2023-04-28T00:19:46;7.13;;;3.03;;
71771;SDS011;59606;52.138;5.424;2023-04-28T00:22:12;7.38;;;3.25;;
71771;SDS011;59606;52.138;5.424;2023-04-28T00:24:40;5.75;;;2.90;;
71771;SDS011;59606;52.138;5.424;2023-04-28T00:27:07;5.40;;;2.80;;
71771;SDS011;59606;52.138;5.424;2023-04-28T00:29:33;7.07;;;3.17;;
71771;SDS011;59606;52.138;5.424;2023-04-28T00:32:00;6.63;;;2.90;;
71771;SDS011;59606;52.138;5.424;2023-04-28T00:34:26;6.60;;;2.60;;
71771;SDS011;59606;52.138;5.424;2023-04-28T00:36:54;6.43;;;2.92;;
71771;SDS011;59606;52.138;5.424;2023-04-28T00:39:20;8.20;;;3.27;;
71771;SDS011;59606;52.138;5.424;2023-04-28T00:41:48;5.93;;;2.63;;
71771;SDS011;59606;52.138;5.424;2023-04-28T00:44:14;8.60;;;3.20;;
71771;SDS011;59606;52.138;5.424;2023-04-28T00:46:41;6.68;;;2.72;;
71771;SDS011;59606;52.138;5.424;2023-04-28T00:49:08;5.95;;;2.80;;
71771;SDS011;59606;52.138;5.424;2023-04-28T00:51:34;5.87;;;3.00;;
71771;SDS011;59606;52.138;5.424;2023-04-28T00:54:01;6.38;;;2.70;;
71771;SDS011;59606;52.138;5.424;2023-04-28T00:56:28;7.20;;;3.22;;
71771;SDS011;59606;52.138;5.424;2023-04-28T00:58:56;9.27;;;2.95;;
71771;SDS011;59606;52.138;5.424;2023-04-28T01:01:23;6.70;;;2.72;;
71771;SDS011;59606;52.138;5.424;2023-04-28T01:03:50;7.67;;;3.00;;
71771;SDS011;59606;52.138;5.424;2023-04-28T01:06:17;9.82;;;3.50;;
71771;SDS011;59606;52.138;5.424;2023-04-28T01:08:47;8.23;;;2.90;;
71771;SDS011;59606;52.138;5.424;2023-04-28T01:11:14;5.85;;;2.67;;
71771;SDS011;59606;52.138;5.424;2023-04-28T01:13:41;9.80;;;2.97;;
71771;SDS011;59606;52.138;5.424;2023-04-28T01:16:07;5.40;;;3.10;;
71771;SDS011;59606;52.138;5.424;2023-04-28T01:18:34;11.13;;;2.92;;
71771;SDS011;59606;52.138;5.424;2023-04-28T01:21:00;7.13;;;2.60;;
71771;SDS011;59606;52.138;5.424;2023-04-28T01:23:29;5.60;;;2.92;;
71771;SDS011;59606;52.138;5.424;2023-04-28T01:25:56;8.00;;;3.08;;
71771;SDS011;59606;52.138;5.424;2023-04-28T01:28:23;7.13;;;3.23;;
71771;SDS011;59606;52.138;5.424;2023-04-28T01:30:51;5.65;;;2.78;;
71771;SDS011;59606;52.138;5.424;2023-04-28T01:33:17;9.15;;;3.20;;
71771;SDS011;59606;52.138;5.424;2023-04-28T01:35:44;7.85;;;3.50;;
71771;SDS011;59606;52.138;5.424;2023-04-28T01:38:10;10.48;;;3.05;;
71771;SDS011;59606;52.138;5.424;2023-04-28T01:40:37;7.57;;;2.63;;
71771;SDS011;59606;52.138;5.424;2023-04-28T01:43:03;6.28;;;2.75;;
71771;SDS011;59606;52.138;5.424;2023-04-28T01:45:30;7.28;;;3.00;;
71771;SDS011;59606;52.138;5.424;2023-04-28T01:47:56;9.73;;;2.92;;
71771;SDS011;59606;52.138;5.424;2023-04-28T01:50:22;7.68;;;2.67;;
71771;SDS011;59606;52.138;5.424;2023-04-28T01:52:49;8.57;;;3.00;;
71771;SDS011;59606;52.138;5.424;2023-04-28T01:55:16;9.43;;;2.95;;
71771;SDS011;59606;52.138;5.424;2023-04-28T01:57:42;9.70;;;3.33;;
71771;SDS011;59606;52.138;5.424;2023-04-28T02:00:09;7.30;;;2.95;;
71771;SDS011;59606;52.138;5.424;2023-04-28T02:02:35;7.22;;;2.83;;
71771;SDS011;59606;52.138;5.424;2023-04-28T02:05:02;6.87;;;3.10;;
71771;SDS011;59606;52.138;5.424;2023-04-28T02:07:29;7.75;;;2.92;;
71771;SDS011;59606;52.138;5.424;2023-04-28T02:09:55;7.75;;;3.40;;
71771;SDS011;59606;52.138;5.424;2023-04-28T02:12:22;7.18;;;2.72;;
71771;SDS011;59606;52.138;5.424;2023-04-28T02:14:49;8.55;;;3.30;;
71771;SDS011;59606;52.138;5.424;2023-04-28T02:17:16;5.63;;;2.53;;
71771;SDS011;59606;52.138;5.424;2023-04-28T02:19:42;5.47;;;3.08;;
71771;SDS011;59606;52.138;5.424;2023-04-28T02:22:09;9.50;;;3.20;;
71771;SDS011;59606;52.138;5.424;2023-04-28T02:24:35;6.03;;;2.72;;
71771;SDS011;59606;52.138;5.424;2023-04-28T02:27:04;6.55;;;2.45;;
71771;SDS011;59606;52.138;5.424;2023-04-28T02:29:30;6.93;;;2.87;;
71771;SDS011;59606;52.138;5.424;2023-04-28T02:31:57;6.55;;;2.95;;
71771;SDS011;59606;52.138;5.424;2023-04-28T02:34:24;9.80;;;2.72;;
71771;SDS011;59606;52.138;5.424;2023-04-28T02:36:50;7.20;;;2.90;;
71771;SDS011;59606;52.138;5.424;2023-04-28T02:39:16;6.72;;;3.10;;
71771;SDS011;59606;52.138;5.424;2023-04-28T02:41:43;8.17;;;3.03;;
71771;SDS011;59606;52.138;5.424;2023-04-28T02:44:09;7.32;;;2.85;;
71771;SDS011;59606;52.138;5.424;2023-04-28T02:46:36;6.35;;;2.58;;
71771;SDS011;59606;52.138;5.424;2023-04-28T02:49:02;8.15;;;2.80;;
71771;SDS011;59606;52.138;5.424;2023-04-28T02:51:29;5.25;;;2.88;;
71771;SDS011;59606;52.138;5.424;2023-04-28T02:53:56;8.77;;;3.07;;
71771;SDS011;59606;52.138;5.424;2023-04-28T02:56:23;5.43;;;3.00;;
71771;SDS011;59606;52.138;5.424;2023-04-28T02:58:49;7.40;;;2.90;;
71771;SDS011;59606;52.138;5.424;2023-04-28T03:01:18;6.80;;;2.70;;
71771;SDS011;59606;52.138;5.424;2023-04-28T03:03:45;8.55;;;2.90;;
71771;SDS011;59606;52.138;5.424;2023-04-28T03:06:11;5.43;;;2.60;;
71771;SDS011;59606;52.138;5.424;2023-04-28T03:08:38;5.25;;;2.60;;
71771;SDS011;59606;52.138;5.424;2023-04-28T03:11:04;9.48;;;3.60;;
71771;SDS011;59606;52.138;5.424;2023-04-28T03:13:31;9.98;;;3.15;;
71771;SDS011;59606;52.138;5.424;2023-04-28T03:15:57;7.32;;;3.28;;
71771;SDS011;59606;52.138;5.424;2023-04-28T03:18:24;9.27;;;3.00;;
71771;SDS011;59606;52.138;5.424;2023-04-28T03:20:51;5.45;;;2.50;;
71771;SDS011;59606;52.138;5.424;2023-04-28T03:23:17;5.72;;;2.88;;
71771;SDS011;59606;52.138;5.424;2023-04-28T03:25:43;7.85;;;3.05;;
71771;SDS011;59606;52.138;5.424;2023-04-28T03:28:10;6.90;;;3.05;;
71771;SDS011;59606;52.138;5.424;2023-04-28T03:30:37;8.23;;;3.10;;
71771;SDS011;59606;52.138;5.424;2023-04-28T03:33:03;6.70;;;2.70;;
71771;SDS011;59606;52.138;5.424;2023-04-28T03:35:30;6.05;;;2.65;;
71771;SDS011;59606;52.138;5.424;2023-04-28T03:37:56;4.95;;;2.53;;
71771;SDS011;59606;52.138;5.424;2023-04-28T03:40:23;9.43;;;3.38;;
71771;SDS011;59606;52.138;5.424;2023-04-28T03:42:51;7.37;;;3.07;;
71771;SDS011;59606;52.138;5.424;2023-04-28T03:45:17;5.35;;;2.63;;
71771;SDS011;59606;52.138;5.424;2023-04-28T03:47:44;7.65;;;3.25;;
71771;SDS011;59606;52.138;5.424;2023-04-28T03:50:10;12.50;;;2.58;;
71771;SDS011;59606;52.138;5.424;2023-04-28T03:52:37;6.43;;;2.85;;
71771;SDS011;59606;52.138;5.424;2023-04-28T03:55:03;9.87;;;3.10;;
71771;SDS011;59606;52.138;5.424;2023-04-28T03:57:30;9.02;;;3.15;;
71771;SDS011;59606;52.138;5.424;2023-04-28T03:59:57;7.78;;;3.03;;
71771;SDS011;59606;52.138;5.424;2023-04-28T04:02:23;7.95;;;3.28;;
71771;SDS011;59606;52.138;5.424;2023-04-28T04:04:50;9.43;;;2.70;;
71771;SDS011;59606;52.138;5.424;2023-04-28T04:07:17;6.07;;;3.00;;
71771;SDS011;59606;52.138;5.424;2023-04-28T04:09:44;5.82;;;2.83;;
71771;SDS011;59606;52.138;5.424;2023-04-28T04:12:10;8.98;;;3.33;;
71771;SDS011;59606;52.138;5.424;2023-04-28T04:14:37;5.28;;;2.60;;
71771;SDS011;59606;52.138;5.424;2023-04-28T04:17:03;8.02;;;3.30;;
71771;SDS011;59606;52.138;5.424;2023-04-28T04:19:29;6.00;;;2.63;;
71771;SDS011;59606;52.138;5.424;2023-04-28T04:21:56;6.68;;;2.88;;
71771;SDS011;59606;52.138;5.424;2023-04-28T04:24:22;8.52;;;3.00;;
71771;SDS011;59606;52.138;5.424;2023-04-28T04:26:49;5.53;;;2.75;;
71771;SDS011;59606;52.138;5.424;2023-04-28T04:29:15;7.22;;;3.30;;
71771;SDS011;59606;52.138;5.424;2023-04-28T04:31:42;7.90;;;3.23;;
71771;SDS011;59606;52.138;5.424;2023-04-28T04:34:10;10.10;;;3.38;;
71771;SDS011;59606;52.138;5.424;2023-04-28T04:36:40;8.85;;;3.00;;
71771;SDS011;59606;52.138;5.424;2023-04-28T04:39:06;6.70;;;2.70;;
71771;SDS011;59606;52.138;5.424;2023-04-28T04:41:33;8.90;;;3.53;;
71771;SDS011;59606;52.138;5.424;2023-04-28T04:43:59;6.47;;;2.83;;
71771;SDS011;59606;52.138;5.424;2023-04-28T04:46:26;7.63;;;3.30;;
71771;SDS011;59606;52.138;5.424;2023-04-28T04:48:52;7.65;;;3.25;;
71771;SDS011;59606;52.138;5.424;2023-04-28T04:51:19;8.60;;;3.80;;
71771;SDS011;59606;52.138;5.424;2023-04-28T04:53:45;9.35;;;3.70;;
71771;SDS011;59606;52.138;5.424;2023-04-28T04:56:11;7.87;;;3.10;;
71771;SDS011;59606;52.138;5.424;2023-04-28T04:58:38;6.20;;;3.30;;
71771;SDS011;59606;52.138;5.424;2023-04-28T05:01:04;9.95;;;3.38;;
71771;SDS011;59606;52.138;5.424;2023-04-28T05:03:31;10.60;;;3.88;;
71771;SDS011;59606;52.138;5.424;2023-04-28T05:05:57;10.75;;;4.05;;
71771;SDS011;59606;52.138;5.424;2023-04-28T05:08:24;6.93;;;3.10;;
71771;SDS011;59606;52.138;5.424;2023-04-28T05:10:50;7.82;;;3.15;;
71771;SDS011;59606;52.138;5.424;2023-04-28T05:13:17;8.00;;;3.47;;
71771;SDS011;59606;52.138;5.424;2023-04-28T05:15:43;6.63;;;3.30;;
71771;SDS011;59606;52.138;5.424;2023-04-28T05:18:10;8.73;;;3.15;;
71771;SDS011;59606;52.138;5.424;2023-04-28T05:20:38;9.30;;;3.73;;
71771;SDS011;59606;52.138;5.424;2023-04-28T05:23:05;7.57;;;3.63;;
71771;SDS011;59606;52.138;5.424;2023-04-28T05:25:31;9.00;;;3.40;;
71771;SDS011;59606;52.138;5.424;2023-04-28T05:27:58;11.07;;;3.22;;
71771;SDS011;59606;52.138;5.424;2023-04-28T05:30:29;8.18;;;3.65;;
71771;SDS011;59606;52.138;5.424;2023-04-28T05:32:59;7.93;;;3.50;;
71771;SDS011;59606;52.138;5.424;2023-04-28T05:35:25;7.68;;;3.95;;
71771;SDS011;59606;52.138;5.424;2023-04-28T05:37:52;8.30;;;3.78;;
71771;SDS011;59606;52.138;5.424;2023-04-28T05:40:18;13.82;;;3.70;;
71771;SDS011;59606;52.138;5.424;2023-04-28T05:42:45;7.70;;;3.65;;
71771;SDS011;59606;52.138;5.424;2023-04-28T05:45:11;9.17;;;4.07;;
71771;SDS011;59606;52.138;5.424;2023-04-28T05:47:38;9.27;;;4.32;;
71771;SDS011;59606;52.138;5.424;2023-04-28T05:50:05;8.48;;;3.55;;
71771;SDS011;59606;52.138;5.424;2023-04-28T05:52:32;12.35;;;4.63;;
71771;SDS011;59606;52.138;5.424;2023-04-28T05:54:58;9.20;;;4.63;;
71771;SDS011;59606;52.138;5.424;2023-04-28T05:57:27;9.03;;;4.27;;
71771;SDS011;59606;52.138;5.424;2023-04-28T05:59:58;9.27;;;4.88;;
71771;SDS011;59606;52.138;5.424;2023-04-28T06:02:25;8.30;;;4.20;;
71771;SDS011;59606;52.138;5.424;2023-04-28T06:04:53;9.95;;;4.97;;
71771;SDS011;59606;52.138;5.424;2023-04-28T06:07:19;9.18;;;4.97;;
71771;SDS011;59606;52.138;5.424;2023-04-28T06:09:46;11.33;;;4.90;;
71771;SDS011;59606;52.138;5.424;2023-04-28T06:12:13;11.43;;;4.75;;
71771;SDS011;59606;52.138;5.424;2023-04-28T06:14:39;10.57;;;4.90;;
71771;SDS011;59606;52.138;5.424;2023-04-28T06:17:06;8.70;;;4.82;;
71771;SDS011;59606;52.138;5.424;2023-04-28T06:19:33;13.40;;;5.00;;
71771;SDS011;59606;52.138;5.424;2023-04-28T06:22:00;11.27;;;4.93;;
71771;SDS011;59606;52.138;5.424;2023-04-28T06:24:26;11.70;;;5.28;;
71771;SDS011;59606;52.138;5.424;2023-04-28T06:26:53;10.80;;;5.20;;
71771;SDS011;59606;52.138;5.424;2023-04-28T06:29:19;14.85;;;5.00;;
71771;SDS011;59606;52.138;5.424;2023-04-28T06:31:49;9.80;;;4.80;;
71771;SDS011;59606;52.138;5.424;2023-04-28T06:34:18;12.07;;;5.27;;
71771;SDS011;59606;52.138;5.424;2023-04-28T06:36:44;13.05;;;5.30;;
71771;SDS011;59606;52.138;5.424;2023-04-28T06:39:10;13.27;;;5.10;;
71771;SDS011;59606;52.138;5.424;2023-04-28T06:41:37;12.57;;;5.93;;
71771;SDS011;59606;52.138;5.424;2023-04-28T06:44:04;8.75;;;5.22;;
71771;SDS011;59606;52.138;5.424;2023-04-28T06:46:31;11.27;;;6.30;;
71771;SDS011;59606;52.138;5.424;2023-04-28T06:48:57;14.90;;;6.75;;
71771;SDS011;59606;52.138;5.424;2023-04-28T06:51:24;14.57;;;6.35;;
71771;SDS011;59606;52.138;5.424;2023-04-28T06:53:52;11.88;;;5.70;;
71771;SDS011;59606;52.138;5.424;2023-04-28T06:56:20;13.80;;;7.18;;
71771;SDS011;59606;52.138;5.424;2023-04-28T06:58:46;18.33;;;7.43;;
71771;SDS011;59606;52.138;5.424;2023-04-28T07:01:13;13.25;;;7.15;;
71771;SDS011;59606;52.138;5.424;2023-04-28T07:03:39;13.90;;;6.15;;
71771;SDS011;59606;52.138;5.424;2023-04-28T07:06:06;14.82;;;7.38;;
71771;SDS011;59606;52.138;5.424;2023-04-28T07:08:33;16.52;;;7.15;;
71771;SDS011;59606;52.138;5.424;2023-04-28T07:11:01;18.00;;;8.00;;
71771;SDS011;59606;52.138;5.424;2023-04-28T07:13:30;13.32;;;8.02;;
71771;SDS011;59606;52.138;5.424;2023-04-28T07:15:56;14.95;;;7.65;;
71771;SDS011;59606;52.138;5.424;2023-04-28T07:18:24;16.65;;;7.60;;
71771;SDS011;59606;52.138;5.424;2023-04-28T07:20:51;14.07;;;7.82;;
71771;SDS011;59606;52.138;5.424;2023-04-28T07:23:17;16.77;;;7.83;;
71771;SDS011;59606;52.138;5.424;2023-04-28T07:25:44;14.63;;;7.35;;
71771;SDS011;59606;52.138;5.424;2023-04-28T07:28:10;14.05;;;8.05;;
71771;SDS011;59606;52.138;5.424;2023-04-28T07:30:38;18.40;;;7.80;;
71771;SDS011;59606;52.138;5.424;2023-04-28T07:33:05;13.88;;;7.40;;
71771;SDS011;59606;52.138;5.424;2023-04-28T07:35:32;13.10;;;8.33;;
71771;SDS011;59606;52.138;5.424;2023-04-28T07:37:58;16.95;;;8.73;;
71771;SDS011;59606;52.138;5.424;2023-04-28T07:40:25;16.42;;;7.85;;
71771;SDS011;59606;52.138;5.424;2023-04-28T07:42:51;17.02;;;8.70;;
71771;SDS011;59606;52.138;5.424;2023-04-28T07:45:18;13.55;;;8.57;;
71771;SDS011;59606;52.138;5.424;2023-04-28T07:47:44;16.40;;;8.67;;
71771;SDS011;59606;52.138;5.424;2023-04-28T07:50:11;17.75;;;8.82;;
71771;SDS011;59606;52.138;5.424;2023-04-28T07:52:37;16.60;;;8.98;;
71771;SDS011;59606;52.138;5.424;2023-04-28T07:55:04;18.60;;;9.50;;
71771;SDS011;59606;52.138;5.424;2023-04-28T07:57:34;16.38;;;8.55;;
71771;SDS011;59606;52.138;5.424;2023-04-28T08:00:00;16.90;;;8.60;;
71771;SDS011;59606;52.138;5.424;2023-04-28T08:02:27;15.50;;;9.05;;
71771;SDS011;59606;52.138;5.424;2023-04-28T08:04:54;16.67;;;8.23;;
71771;SDS011;59606;52.138;5.424;2023-04-28T08:07:20;16.00;;;8.45;;
71771;SDS011;59606;52.138;5.424;2023-04-28T08:09:47;18.50;;;9.10;;
71771;SDS011;59606;52.138;5.424;2023-04-28T08:12:14;23.13;;;9.17;;
71771;SDS011;59606;52.138;5.424;2023-04-28T08:14:40;16.60;;;8.63;;
71771;SDS011;59606;52.138;5.424;2023-04-28T08:17:07;18.17;;;9.38;;
71771;SDS011;59606;52.138;5.424;2023-04-28T08:19:34;15.70;;;8.73;;
71771;SDS011;59606;52.138;5.424;2023-04-28T08:22:00;18.10;;;9.25;;
71771;SDS011;59606;52.138;5.424;2023-04-28T08:24:31;17.40;;;9.23;;
71771;SDS011;59606;52.138;5.424;2023-04-28T08:27:02;14.52;;;8.23;;
71771;SDS011;59606;52.138;5.424;2023-04-28T08:29:29;17.67;;;9.30;;
71771;SDS011;59606;52.138;5.424;2023-04-28T08:31:56;18.67;;;9.88;;
71771;SDS011;59606;52.138;5.424;2023-04-28T08:34:22;16.58;;;10.18;;
71771;SDS011;59606;52.138;5.424;2023-04-28T08:36:50;16.47;;;10.13;;
71771;SDS011;59606;52.138;5.424;2023-04-28T08:39:16;18.83;;;9.65;;
71771;SDS011;59606;52.138;5.424;2023-04-28T08:41:44;21.38;;;9.93;;
71771;SDS011;59606;52.138;5.424;2023-04-28T08:44:11;17.70;;;9.95;;
71771;SDS011;59606;52.138;5.424;2023-04-28T08:46:42;16.15;;;10.15;;
71771;SDS011;59606;52.138;5.424;2023-04-28T08:49:11;17.60;;;10.13;;
71771;SDS011;59606;52.138;5.424;2023-04-28T08:51:55;19.58;;;10.55;;
71771;SDS011;59606;52.138;5.424;2023-04-28T08:54:25;18.38;;;10.43;;
71771;SDS011;59606;52.138;5.424;2023-04-28T08:56:56;20.25;;;10.48;;
71771;SDS011;59606;52.138;5.424;2023-04-28T08:59:24;19.00;;;10.70;;
71771;SDS011;59606;52.138;5.424;2023-04-28T09:01:51;20.23;;;11.57;;
71771;SDS011;59606;52.138;5.424;2023-04-28T09:04:18;19.98;;;11.05;;
71771;SDS011;59606;52.138;5.424;2023-04-28T09:06:46;24.63;;;11.30;;
71771;SDS011;59606;52.138;5.424;2023-04-28T09:09:25;17.98;;;10.73;;
71771;SDS011;59606;52.138;5.424;2023-04-28T09:11:59;17.67;;;11.32;;
71771;SDS011;59606;52.138;5.424;2023-04-28T09:14:27;21.17;;;11.80;;
71771;SDS011;59606;52.138;5.424;2023-04-28T09:16:54;20.48;;;11.77;;
71771;SDS011;59606;52.138;5.424;2023-04-28T09:19:21;18.55;;;10.88;;
71771;SDS011;59606;52.138;5.424;2023-04-28T09:21:52;19.35;;;12.40;;
71771;SDS011;59606;52.138;5.424;2023-04-28T09:24:33;21.55;;;12.00;;
71771;SDS011;59606;52.138;5.424;2023-04-28T09:27:02;22.20;;;12.47;;
71771;SDS011;59606;52.138;5.424;2023-04-28T09:29:30;19.20;;;11.50;;
71771;SDS011;59606;52.138;5.424;2023-04-28T09:32:13;21.10;;;12.20;;
71771;SDS011;59606;52.138;5.424;2023-04-28T09:34:45;21.15;;;12.50;;
71771;SDS011;59606;52.138;5.424;2023-04-28T09:37:20;17.63;;;11.77;;
71771;SDS011;59606;52.138;5.424;2023-04-28T09:39:49;23.27;;;12.43;;
71771;SDS011;59606;52.138;5.424;2023-04-28T09:45:13;23.00;;;12.45;;
71771;SDS011;59606;52.138;5.424;2023-04-28T09:47:41;21.50;;;12.13;;
71771;SDS011;59606;52.138;5.424;2023-04-28T09:50:10;18.73;;;11.68;;
71771;SDS011;59606;52.138;5.424;2023-04-28T09:52:40;21.37;;;12.47;;
71771;SDS011;59606;52.138;5.424;2023-04-28T09:55:08;20.38;;;11.38;;
71771;SDS011;59606;52.138;5.424;2023-04-28T09:57:35;18.55;;;11.38;;
71771;SDS011;59606;52.138;5.424;2023-04-28T10:00:02;20.13;;;12.48;;
71771;SDS011;59606;52.138;5.424;2023-04-28T10:02:35;21.38;;;12.25;;
71771;SDS011;59606;52.138;5.424;2023-04-28T10:05:05;20.50;;;12.73;;
71771;SDS011;59606;52.138;5.424;2023-04-28T10:07:35;19.77;;;11.23;;
71771;SDS011;59606;52.138;5.424;2023-04-28T10:10:02;17.65;;;11.05;;
71771;SDS011;59606;52.138;5.424;2023-04-28T10:12:31;16.83;;;10.35;;
71771;SDS011;59606;52.138;5.424;2023-04-28T10:14:58;19.63;;;10.63;;
71771;SDS011;59606;52.138;5.424;2023-04-28T10:17:25;18.97;;;11.03;;
71771;SDS011;59606;52.138;5.424;2023-04-28T10:19:52;17.90;;;10.27;;
71771;SDS011;59606;52.138;5.424;2023-04-28T10:22:23;16.23;;;9.77;;
71771;SDS011;59606;52.138;5.424;2023-04-28T10:27:54;14.38;;;9.07;;
71771;SDS011;59606;52.138;5.424;2023-04-28T10:30:24;15.20;;;9.23;;
71771;SDS011;59606;52.138;5.424;2023-04-28T10:43:00;14.87;;;8.60;;
71771;SDS011;59606;52.138;5.424;2023-04-28T10:58:37;13.38;;;8.88;;
71771;SDS011;59606;52.138;5.424;2023-04-28T11:06:16;12.95;;;8.00;;
71771;SDS011;59606;52.138;5.424;2023-04-28T11:08:45;12.27;;;7.83;;
71771;SDS011;59606;52.138;5.424;2023-04-28T11:11:12;17.80;;;12.30;;
71771;SDS011;59606;52.138;5.424;2023-04-28T11:13:40;12.07;;;7.40;;
71771;SDS011;59606;52.138;5.424;2023-04-28T11:16:07;13.43;;;7.78;;
71771;SDS011;59606;52.138;5.424;2023-04-28T11:18:42;12.25;;;7.63;;
71771;SDS011;59606;52.138;5.424;2023-04-28T11:21:21;13.57;;;8.53;;
71771;SDS011;59606;52.138;5.424;2023-04-28T11:23:48;11.95;;;7.43;;
71771;SDS011;59606;52.138;5.424;2023-04-28T11:26:15;12.48;;;8.02;;
71771;SDS011;59606;52.138;5.424;2023-04-28T11:28:50;14.15;;;8.43;;
71771;SDS011;59606;52.138;5.424;2023-04-28T11:31:19;12.20;;;7.97;;
71771;SDS011;59606;52.138;5.424;2023-04-28T11:33:59;14.77;;;7.60;;
71771;SDS011;59606;52.138;5.424;2023-04-28T11:36:40;13.32;;;7.43;;
71771;SDS011;59606;52.138;5.424;2023-04-28T11:39:07;15.82;;;7.82;;
71771;SDS011;59606;52.138;5.424;2023-04-28T11:41:38;14.73;;;7.65;;
71771;SDS011;59606;52.138;5.424;2023-04-28T11:44:16;14.18;;;7.85;;
71771;SDS011;59606;52.138;5.424;2023-04-28T11:49:27;14.07;;;8.20;;
71771;SDS011;59606;52.138;5.424;2023-04-28T11:52:03;13.80;;;7.22;;
71771;SDS011;59606;52.138;5.424;2023-04-28T11:54:31;14.35;;;7.32;;
71771;SDS011;59606;52.138;5.424;2023-04-28T11:56:58;12.10;;;6.88;;
71771;SDS011;59606;52.138;5.424;2023-04-28T11:59:30;12.20;;;6.97;;
71771;SDS011;59606;52.138;5.424;2023-04-28T12:04:36;12.68;;;6.63;;
71771;SDS011;59606;52.138;5.424;2023-04-28T12:12:13;11.03;;;6.00;;
71771;SDS011;59606;52.138;5.424;2023-04-28T12:14:53;11.30;;;5.72;;
71771;SDS011;59606;52.138;5.424;2023-04-28T12:17:33;13.80;;;5.60;;
71771;SDS011;59606;52.138;5.424;2023-04-28T12:20:06;11.00;;;5.32;;
71771;SDS011;59606;52.138;5.424;2023-04-28T12:22:46;11.50;;;5.63;;
71771;SDS011;59606;52.138;5.424;2023-04-28T12:25:15;10.10;;;4.87;;
71771;SDS011;59606;52.138;5.424;2023-04-28T12:30:34;9.60;;;4.70;;
71771;SDS011;59606;52.138;5.424;2023-04-28T12:33:20;9.07;;;3.92;;
71771;SDS011;59606;52.138;5.424;2023-04-28T12:35:57;9.10;;;4.00;;
71771;SDS011;59606;52.138;5.424;2023-04-28T12:38:24;10.87;;;3.90;;
71771;SDS011;59606;52.138;5.424;2023-04-28T12:40:51;8.57;;;3.80;;
71771;SDS011;59606;52.138;5.424;2023-04-28T12:43:18;7.90;;;3.58;;
71771;SDS011;59606;52.138;5.424;2023-04-28T12:45:46;7.38;;;3.28;;
71771;SDS011;59606;52.138;5.424;2023-04-28T12:48:12;9.32;;;3.20;;
71771;SDS011;59606;52.138;5.424;2023-04-28T12:50:39;7.93;;;3.13;;
71771;SDS011;59606;52.138;5.424;2023-04-28T12:53:05;6.32;;;2.80;;
71771;SDS011;59606;52.138;5.424;2023-04-28T12:55:32;6.30;;;2.45;;
71771;SDS011;59606;52.138;5.424;2023-04-28T12:57:58;4.43;;;2.10;;
71771;SDS011;59606;52.138;5.424;2023-04-28T13:00:26;4.97;;;2.40;;
71771;SDS011;59606;52.138;5.424;2023-04-28T13:02:52;5.23;;;2.33;;
71771;SDS011;59606;52.138;5.424;2023-04-28T13:05:19;4.35;;;2.33;;
71771;SDS011;59606;52.138;5.424;2023-04-28T13:07:45;4.45;;;1.95;;
71771;SDS011;59606;52.138;5.424;2023-04-28T13:10:12;4.47;;;1.95;;
71771;SDS011;59606;52.138;5.424;2023-04-28T13:12:39;4.30;;;2.17;;
71771;SDS011;59606;52.138;5.424;2023-04-28T13:15:06;4.73;;;2.00;;
71771;SDS011;59606;52.138;5.424;2023-04-28T13:17:33;3.47;;;2.05;;
71771;SDS011;59606;52.138;5.424;2023-04-28T13:20:00;4.85;;;2.22;;
71771;SDS011;59606;52.138;5.424;2023-04-28T13:22:30;5.63;;;2.63;;
71771;SDS011;59606;52.138;5.424;2023-04-28T13:24:56;6.07;;;2.78;;
71771;SDS011;59606;52.138;5.424;2023-04-28T13:27:23;3.83;;;2.80;;
71771;SDS011;59606;52.138;5.424;2023-04-28T13:29:50;5.40;;;3.00;;
71771;SDS011;59606;52.138;5.424;2023-04-28T13:32:16;5.05;;;3.40;;
71771;SDS011;59606;52.138;5.424;2023-04-28T13:34:43;4.57;;;3.30;;
71771;SDS011;59606;52.138;5.424;2023-04-28T13:37:12;5.38;;;3.00;;
71771;SDS011;59606;52.138;5.424;2023-04-28T13:39:38;4.37;;;3.00;;
71771;SDS011;59606;52.138;5.424;2023-04-28T13:42:05;4.95;;;3.17;;
71771;SDS011;59606;52.138;5.424;2023-04-28T13:44:32;4.85;;;3.40;;
71771;SDS011;59606;52.138;5.424;2023-04-28T13:46:58;5.03;;;3.60;;
71771;SDS011;59606;52.138;5.424;2023-04-28T13:49:27;5.78;;;3.50;;
71771;SDS011;59606;52.138;5.424;2023-04-28T13:51:54;4.63;;;3.57;;
71771;SDS011;59606;52.138;5.424;2023-04-28T13:54:20;5.03;;;3.58;;
71771;SDS011;59606;52.138;5.424;2023-04-28T13:56:47;4.78;;;3.33;;
71771;SDS011;59606;52.138;5.424;2023-04-28T13:59:13;7.00;;;3.65;;
71771;SDS011;59606;52.138;5.424;2023-04-28T14:01:43;5.32;;;3.83;;
71771;SDS011;59606;52.138;5.424;2023-04-28T14:04:10;5.73;;;3.70;;
71771;SDS011;59606;52.138;5.424;2023-04-28T14:06:37;4.18;;;2.90;;
71771;SDS011;59606;52.138;5.424;2023-04-28T14:09:03;3.70;;;2.50;;
71771;SDS011;59606;52.138;5.424;2023-04-28T14:11:30;3.80;;;2.22;;
71771;SDS011;59606;52.138;5.424;2023-04-28T14:13:56;5.95;;;3.05;;
71771;SDS011;59606;52.138;5.424;2023-04-28T14:16:23;3.40;;;2.30;;
71771;SDS011;59606;52.138;5.424;2023-04-28T14:18:49;4.68;;;2.88;;
71771;SDS011;59606;52.138;5.424;2023-04-28T14:21:16;3.97;;;2.15;;
71771;SDS011;59606;52.138;5.424;2023-04-28T14:23:44;5.45;;;2.78;;
71771;SDS011;59606;52.138;5.424;2023-04-28T14:26:11;3.88;;;2.60;;
71771;SDS011;59606;52.138;5.424;2023-04-28T14:28:37;3.53;;;2.40;;
71771;SDS011;59606;52.138;5.424;2023-04-28T14:31:04;4.32;;;2.60;;
71771;SDS011;59606;52.138;5.424;2023-04-28T14:33:34;5.22;;;2.97;;
71771;SDS011;59606;52.138;5.424;2023-04-28T14:36:01;4.65;;;2.83;;
71771;SDS011;59606;52.138;5.424;2023-04-28T14:38:27;6.45;;;3.97;;
71771;SDS011;59606;52.138;5.424;2023-04-28T14:40:55;7.77;;;3.70;;
71771;SDS011;59606;52.138;5.424;2023-04-28T14:43:22;6.70;;;3.85;;
71771;SDS011;59606;52.138;5.424;2023-04-28T14:45:52;7.45;;;3.42;;
71771;SDS011;59606;52.138;5.424;2023-04-28T14:48:19;9.27;;;4.15;;
71771;SDS011;59606;52.138;5.424;2023-04-28T14:50:45;9.15;;;3.97;;
71771;SDS011;59606;52.138;5.424;2023-04-28T14:53:12;8.10;;;4.20;;
71771;SDS011;59606;52.138;5.424;2023-04-28T14:55:39;10.43;;;4.57;;
71771;SDS011;59606;52.138;5.424;2023-04-28T14:58:05;13.73;;;5.13;;
71771;SDS011;59606;52.138;5.424;2023-04-28T15:00:32;11.93;;;5.50;;
71771;SDS011;59606;52.138;5.424;2023-04-28T15:03:00;13.98;;;6.00;;
71771;SDS011;59606;52.138;5.424;2023-04-28T15:05:27;14.53;;;5.07;;
71771;SDS011;59606;52.138;5.424;2023-04-28T15:07:54;13.00;;;4.95;;
71771;SDS011;59606;52.138;5.424;2023-04-28T15:10:20;12.88;;;5.25;;
71771;SDS011;59606;52.138;5.424;2023-04-28T15:12:47;11.70;;;5.15;;
71771;SDS011;59606;52.138;5.424;2023-04-28T15:15:14;12.68;;;5.07;;
71771;SDS011;59606;52.138;5.424;2023-04-28T15:17:40;11.87;;;5.20;;
71771;SDS011;59606;52.138;5.424;2023-04-28T15:20:07;14.30;;;6.43;;
71771;SDS011;59606;52.138;5.424;2023-04-28T15:22:34;14.25;;;5.97;;
71771;SDS011;59606;52.138;5.424;2023-04-28T15:25:01;15.30;;;5.55;;
71771;SDS011;59606;52.138;5.424;2023-04-28T15:27:28;14.45;;;5.47;;
71771;SDS011;59606;52.138;5.424;2023-04-28T15:29:56;15.37;;;5.50;;